Time;durP1;ratioP1;P1;durP2;ratioP2;P2;SDS_P1;SDS_P2;PMS_P1;PMS_P2;Temp;Humidity;BMP_temperature;BMP_pressure;BME280_temperature;BME280_humidity;BME280_pressure;Samples;Min_cycle;Max_cycle;Signal;HPM_P1;HPM_P2
2023/07/12 00:00:45;;;;;;;5.70;2.78;;;18.40;99.90;;;;;;5092576;28;20397;-69
2023/07/12 00:03:11;;;;;;;7.63;3.20;;;18.40;99.90;;;;;;5092958;28;20457;-69
2023/07/12 00:05:37;;;;;;;8.23;3.53;;;18.40;99.90;;;;;;5092803;28;20036;-69
2023/07/12 00:08:04;;;;;;;7.28;3.38;;;18.30;99.90;;;;;;5126616;27;20036;-69
2023/07/12 00:10:32;;;;;;;6.47;3.50;;;18.30;99.90;;;;;;5092204;28;20036;-69
2023/07/12 00:12:57;;;;;;;8.13;3.28;;;18.30;99.90;;;;;;5092696;28;20473;-69
2023/07/12 00:15:28;;;;;;;6.53;3.30;;;18.30;99.90;;;;;;5093102;28;20042;-69
2023/07/12 00:17:54;;;;;;;6.28;3.13;;;18.30;99.90;;;;;;5093589;28;20032;-69
2023/07/12 00:20:20;;;;;;;8.57;3.47;;;18.30;99.90;;;;;;5092515;28;20042;-69
2023/07/12 00:22:46;;;;;;;5.93;3.08;;;18.30;99.90;;;;;;5125638;27;20459;-70
2023/07/12 00:25:12;;;;;;;6.22;3.22;;;18.30;99.90;;;;;;5126415;27;20115;-69
2023/07/12 00:27:38;;;;;;;6.40;2.80;;;18.30;99.90;;;;;;5074408;28;20071;-69
2023/07/12 00:30:22;;;;;;;6.63;3.08;;;18.20;99.90;;;;;;5092749;28;20079;-69
2023/07/12 00:32:52;;;;;;;6.27;3.10;;;18.20;99.90;;;;;;5091782;28;20036;-69
2023/07/12 00:35:24;;;;;;;6.03;2.90;;;18.20;99.90;;;;;;5090418;28;20032;-70
2023/07/12 00:37:52;;;;;;;6.85;3.15;;;18.20;99.90;;;;;;5096295;28;20028;-70
2023/07/12 00:40:36;;;;;;;6.60;3.42;;;18.10;99.90;;;;;;5112680;28;20042;-69
2023/07/12 00:43:17;;;;;;;5.78;3.17;;;18.10;99.90;;;;;;5111850;28;20046;-69
2023/07/12 00:45:46;;;;;;;7.22;3.55;;;18.10;99.90;;;;;;5107776;28;20052;-70
2023/07/12 00:48:13;;;;;;;8.27;3.00;;;18.00;99.90;;;;;;5090810;28;20051;-70
2023/07/12 00:50:40;;;;;;;7.93;3.03;;;18.00;99.90;;;;;;5092045;28;20395;-70
2023/07/12 00:53:16;;;;;;;6.38;3.13;;;18.00;99.90;;;;;;5092875;28;20032;-69
2023/07/12 00:55:59;;;;;;;10.10;2.97;;;17.90;99.90;;;;;;5090442;28;20290;-70
2023/07/12 00:58:29;;;;;;;6.93;2.80;;;17.90;99.90;;;;;;5124785;27;20040;-70
2023/07/12 01:00:56;;;;;;;12.52;3.15;;;17.80;99.90;;;;;;5092578;28;20047;-70
2023/07/12 01:03:24;;;;;;;7.88;2.97;;;17.80;99.90;;;;;;5091615;28;20040;-70
2023/07/12 01:05:50;;;;;;;8.77;2.70;;;17.80;99.90;;;;;;5091045;28;20043;-70
2023/07/12 01:08:16;;;;;;;7.97;2.55;;;17.80;99.90;;;;;;5074408;28;20066;-70
2023/07/12 01:10:42;;;;;;;7.03;2.85;;;17.80;99.90;;;;;;5091493;28;20032;-69
2023/07/12 01:13:09;;;;;;;9.45;2.90;;;17.80;99.90;;;;;;5125661;27;20036;-69
2023/07/12 01:15:36;;;;;;;8.05;2.83;;;17.80;99.90;;;;;;5090149;28;20081;-70
2023/07/12 01:18:03;;;;;;;6.10;2.42;;;17.70;99.90;;;;;;5090922;28;20043;-70
2023/07/12 01:20:35;;;;;;;7.78;2.67;;;17.70;99.90;;;;;;5092473;28;20074;-70
2023/07/12 01:23:02;;;;;;;8.23;2.90;;;17.70;99.90;;;;;;5090107;28;20036;-70
2023/07/12 01:25:46;;;;;;;9.30;2.95;;;17.70;99.90;;;;;;5088973;28;20107;-70
2023/07/12 01:28:12;;;;;;;7.30;2.80;;;17.70;99.90;;;;;;5077215;28;20438;-70
2023/07/12 01:30:38;;;;;;;6.85;2.75;;;17.70;99.90;;;;;;5091785;28;20040;-69
2023/07/12 01:33:05;;;;;;;9.43;3.58;;;17.60;99.90;;;;;;5074268;28;20500;-70
2023/07/12 01:35:31;;;;;;;6.57;2.92;;;17.60;99.90;;;;;;5091880;28;20426;-70
2023/07/12 01:37:57;;;;;;;9.20;3.63;;;17.60;99.90;;;;;;5093852;28;20058;-69
2023/07/12 01:40:23;;;;;;;6.88;3.08;;;17.60;99.90;;;;;;5111065;28;20046;-69
2023/07/12 01:42:48;;;;;;;6.55;3.15;;;17.60;99.90;;;;;;5111001;28;20035;-70
2023/07/12 01:45:14;;;;;;;10.38;3.85;;;17.60;99.90;;;;;;5090830;28;20048;-69
2023/07/12 01:47:40;;;;;;;9.10;3.33;;;17.60;99.90;;;;;;5090583;28;20119;-69
2023/07/12 01:50:06;;;;;;;12.85;4.13;;;17.60;99.90;;;;;;5090999;28;20063;-70
2023/07/12 01:52:32;;;;;;;7.25;2.90;;;17.50;99.90;;;;;;5089986;28;20036;-70
2023/07/12 01:54:57;;;;;;;7.80;3.50;;;17.60;99.90;;;;;;5124935;28;20040;-70
2023/07/12 01:57:23;;;;;;;11.48;3.83;;;17.60;99.90;;;;;;5089724;28;20119;-70
2023/07/12 01:59:49;;;;;;;8.65;3.58;;;17.60;99.90;;;;;;5108102;28;20114;-70
2023/07/12 02:02:14;;;;;;;14.45;4.35;;;17.60;99.90;;;;;;5112394;28;20049;-69
2023/07/12 02:04:40;;;;;;;7.68;3.63;;;17.60;99.90;;;;;;5109580;28;20426;-69
2023/07/12 02:07:06;;;;;;;11.73;3.80;;;17.50;99.90;;;;;;5093618;28;20044;-70
2023/07/12 02:09:35;;;;;;;12.45;3.97;;;17.50;99.90;;;;;;5090244;28;20044;-69
2023/07/12 02:12:02;;;;;;;9.88;4.18;;;17.50;99.90;;;;;;5090395;28;20481;-69
2023/07/12 02:14:27;;;;;;;10.65;4.35;;;17.50;99.90;;;;;;5091833;28;20052;-69
2023/07/12 02:16:53;;;;;;;11.15;4.10;;;17.50;99.90;;;;;;5093554;28;20045;-70
2023/07/12 02:19:19;;;;;;;9.07;4.07;;;17.60;99.90;;;;;;5069422;28;20041;-69
2023/07/12 02:21:45;;;;;;;11.90;4.38;;;17.60;99.90;;;;;;5085870;28;20492;-69
2023/07/12 02:24:11;;;;;;;12.85;5.32;;;17.60;99.90;;;;;;5090642;28;20040;-69
2023/07/12 02:26:36;;;;;;;12.05;5.38;;;17.60;99.90;;;;;;5112381;28;20047;-69
2023/07/12 02:29:02;;;;;;;15.38;4.75;;;17.60;99.90;;;;;;5071460;28;20048;-69
2023/07/12 02:31:31;;;;;;;17.33;5.32;;;17.70;99.90;;;;;;5070059;28;20366;-70
2023/07/12 02:33:56;;;;;;;11.75;3.85;;;17.70;99.90;;;;;;5104548;28;20043;-70
2023/07/12 02:36:22;;;;;;;13.90;4.75;;;17.70;99.90;;;;;;5097512;28;20412;-70
2023/07/12 02:38:48;;;;;;;9.73;3.78;;;17.70;99.90;;;;;;5110151;28;20043;-69
2023/07/12 02:41:15;;;;;;;16.25;4.55;;;17.60;99.90;;;;;;5111036;28;20047;-69
2023/07/12 02:43:41;;;;;;;14.90;4.63;;;17.60;99.90;;;;;;5110667;28;20046;-70
2023/07/12 02:46:06;;;;;;;13.02;4.07;;;17.60;99.90;;;;;;5088475;28;20043;-69
2023/07/12 02:48:32;;;;;;;10.77;3.90;;;17.60;99.90;;;;;;5110060;28;20048;-69
2023/07/12 02:50:58;;;;;;;12.23;4.80;;;17.60;99.90;;;;;;5093853;28;20078;-69
2023/07/12 02:53:24;;;;;;;15.68;4.95;;;17.60;99.90;;;;;;5094988;28;20431;-69
2023/07/12 02:55:50;;;;;;;12.27;4.65;;;17.60;99.90;;;;;;5112102;28;20471;-69
2023/07/12 02:58:17;;;;;;;11.30;4.53;;;17.60;99.90;;;;;;5115212;28;20069;-69
2023/07/12 03:00:42;;;;;;;11.85;4.63;;;17.60;99.90;;;;;;5113747;28;20118;-69
2023/07/12 03:03:09;;;;;;;13.75;4.80;;;17.70;99.90;;;;;;5113427;28;20118;-70
2023/07/12 03:05:36;;;;;;;12.07;4.85;;;17.70;99.90;;;;;;5112309;28;20039;-70
2023/07/12 03:08:02;;;;;;;11.68;4.65;;;17.70;99.90;;;;;;5075697;28;20052;-70
2023/07/12 03:10:27;;;;;;;9.52;4.00;;;17.70;99.90;;;;;;5094583;28;20032;-69
2023/07/12 03:12:54;;;;;;;13.48;4.68;;;17.70;99.90;;;;;;5093327;28;20127;-69
2023/07/12 03:15:20;;;;;;;11.27;3.88;;;17.70;99.90;;;;;;5092475;28;20039;-69
2023/07/12 03:17:46;;;;;;;15.05;5.70;;;17.70;99.90;;;;;;5076521;28;20043;-69
2023/07/12 03:20:12;;;;;;;12.50;4.85;;;17.70;99.90;;;;;;5127760;27;20050;-69
2023/07/12 03:22:37;;;;;;;16.52;4.55;;;17.80;99.90;;;;;;5092561;28;20094;-69
2023/07/12 03:25:03;;;;;;;16.60;5.18;;;17.70;99.90;;;;;;5093006;28;20040;-69
2023/07/12 03:27:29;;;;;;;10.75;4.15;;;17.70;99.90;;;;;;5094364;28;20074;-69
2023/07/12 03:29:55;;;;;;;10.93;4.22;;;17.70;99.90;;;;;;5126601;27;20071;-69
2023/07/12 03:32:21;;;;;;;13.35;4.60;;;17.70;99.90;;;;;;5076222;28;20037;-70
2023/07/12 03:34:46;;;;;;;17.77;4.90;;;17.70;99.90;;;;;;5094362;28;20389;-69
2023/07/12 03:37:12;;;;;;;12.00;4.85;;;17.70;99.90;;;;;;5112646;27;20080;-69
2023/07/12 03:39:38;;;;;;;18.48;5.22;;;17.70;99.90;;;;;;5092222;28;20048;-69
2023/07/12 03:42:04;;;;;;;15.88;5.03;;;17.70;99.90;;;;;;5075838;28;20529;-69
2023/07/12 03:44:30;;;;;;;11.75;4.50;;;17.70;99.90;;;;;;5092006;28;20439;-69
2023/07/12 03:46:56;;;;;;;12.52;5.00;;;17.70;99.90;;;;;;5094631;28;20052;-69
2023/07/12 03:49:21;;;;;;;12.40;5.22;;;17.60;99.90;;;;;;5105038;28;20036;-69
2023/07/12 03:51:47;;;;;;;13.77;5.38;;;17.60;99.90;;;;;;5112964;28;20077;-70
2023/07/12 03:54:13;;;;;;;14.68;5.30;;;17.70;99.90;;;;;;5114036;28;20048;-70
2023/07/12 03:56:39;;;;;;;11.73;5.00;;;17.60;99.90;;;;;;5105721;28;20044;-69
2023/07/12 03:59:06;;;;;;;14.65;5.60;;;17.60;99.90;;;;;;5092275;28;20040;-69
2023/07/12 04:01:31;;;;;;;14.95;5.20;;;17.60;99.90;;;;;;5093957;28;20048;-69
2023/07/12 04:03:57;;;;;;;15.63;4.78;;;17.60;99.90;;;;;;5126479;27;20046;-69
2023/07/12 04:06:23;;;;;;;12.45;4.72;;;17.60;99.90;;;;;;5092638;28;20043;-69
2023/07/12 04:08:48;;;;;;;13.77;5.70;;;17.60;99.90;;;;;;5081947;28;20170;-69
2023/07/12 04:11:24;;;;;;;14.88;5.18;;;17.60;99.90;;;;;;5092455;28;20097;-69
2023/07/12 04:13:51;;;;;;;19.38;6.03;;;17.60;99.90;;;;;;5093568;28;20036;-69
2023/07/12 04:16:16;;;;;;;17.30;5.97;;;17.60;99.90;;;;;;5075836;28;20135;-69
2023/07/12 04:18:42;;;;;;;16.80;5.82;;;17.60;99.90;;;;;;5113085;28;20579;-69
2023/07/12 04:21:08;;;;;;;16.23;7.00;;;17.60;99.90;;;;;;5113848;28;20044;-69
2023/07/12 04:23:33;;;;;;;15.48;7.07;;;17.60;99.90;;;;;;5095144;28;20071;-69
2023/07/12 04:26:01;;;;;;;18.98;6.32;;;17.60;99.90;;;;;;5109667;28;20051;-69
2023/07/12 04:28:28;;;;;;;20.95;8.07;;;17.60;99.90;;;;;;5091827;28;20489;-69
2023/07/12 04:30:54;;;;;;;17.95;7.35;;;17.70;99.90;;;;;;5075148;28;20115;-69
2023/07/12 04:33:21;;;;;;;22.63;6.88;;;17.70;99.90;;;;;;5092443;28;20115;-69
2023/07/12 04:35:46;;;;;;;16.48;7.30;;;17.60;99.90;;;;;;5091381;28;20107;-69
2023/07/12 04:38:13;;;;;;;19.35;6.40;;;17.60;99.90;;;;;;5108184;28;20130;-69
2023/07/12 04:40:38;;;;;;;13.23;5.85;;;17.60;99.90;;;;;;5113067;28;20040;-69
2023/07/12 04:43:04;;;;;;;16.90;6.93;;;17.60;99.90;;;;;;5108687;28;20047;-69
2023/07/12 04:45:29;;;;;;;17.17;6.45;;;17.60;99.90;;;;;;5091697;28;20095;-69
2023/07/12 04:47:55;;;;;;;15.98;5.95;;;17.60;99.90;;;;;;5090857;28;20042;-69
2023/07/12 04:50:21;;;;;;;17.33;6.00;;;17.70;99.90;;;;;;5092622;28;20387;-69
2023/07/12 04:52:46;;;;;;;18.27;6.00;;;17.70;99.90;;;;;;5092824;28;20040;-69
2023/07/12 04:55:22;;;;;;;17.75;6.10;;;17.70;99.90;;;;;;5092409;28;20046;-69
2023/07/12 04:57:47;;;;;;;11.32;5.07;;;17.70;99.90;;;;;;5092556;28;20121;-69
2023/07/12 05:00:14;;;;;;;18.25;5.55;;;17.70;99.90;;;;;;5091909;28;20073;-69
2023/07/12 05:02:40;;;;;;;13.50;5.50;;;17.90;99.90;;;;;;5092129;28;20455;-69
2023/07/12 05:05:06;;;;;;;20.02;6.63;;;17.90;99.90;;;;;;5091556;28;20047;-69
2023/07/12 05:07:31;;;;;;;19.52;6.38;;;17.90;99.90;;;;;;5092653;28;20044;-69
2023/07/12 05:09:57;;;;;;;16.77;6.60;;;17.90;99.90;;;;;;5124185;27;20499;-68
2023/07/12 05:12:23;;;;;;;18.27;6.10;;;17.90;99.90;;;;;;5124490;27;20040;-69
2023/07/12 05:14:48;;;;;;;17.80;6.32;;;17.90;99.90;;;;;;5124706;27;20035;-69
2023/07/12 05:17:14;;;;;;;13.93;5.63;;;17.90;99.90;;;;;;5092149;28;20373;-69
2023/07/12 05:19:40;;;;;;;17.55;5.10;;;17.90;99.90;;;;;;5107846;28;20063;-68
2023/07/12 05:22:05;;;;;;;17.27;6.53;;;18.00;99.90;;;;;;5123897;27;20047;-69
2023/07/12 05:24:31;;;;;;;18.25;6.30;;;17.90;99.90;;;;;;5114594;27;20045;-69
2023/07/12 05:26:58;;;;;;;12.63;4.68;;;18.00;99.90;;;;;;5086075;28;20032;-69
2023/07/12 05:29:24;;;;;;;14.05;5.32;;;18.00;99.90;;;;;;5090353;28;20439;-69
2023/07/12 05:31:49;;;;;;;19.33;5.85;;;18.10;99.90;;;;;;5101136;28;20038;-69
2023/07/12 05:34:15;;;;;;;16.98;5.90;;;18.20;99.90;;;;;;5104667;28;20066;-69
2023/07/12 05:36:41;;;;;;;21.77;6.70;;;18.30;99.90;;;;;;5091156;28;20080;-70
2023/07/12 05:39:06;;;;;;;16.70;5.70;;;18.30;99.90;;;;;;5092681;28;20136;-69
2023/07/12 05:41:32;;;;;;;21.05;6.93;;;18.30;99.90;;;;;;5090996;28;20044;-70
2023/07/12 05:43:59;;;;;;;19.15;6.50;;;18.40;99.90;;;;;;5072857;28;20067;-69
2023/07/12 05:46:25;;;;;;;13.48;5.90;;;18.40;99.90;;;;;;5090735;28;20051;-69
2023/07/12 05:48:51;;;;;;;15.88;6.45;;;18.40;99.90;;;;;;5090538;28;20048;-69
2023/07/12 05:51:17;;;;;;;13.88;5.35;;;18.60;99.90;;;;;;5090027;28;20036;-69
2023/07/12 05:53:42;;;;;;;17.40;5.95;;;18.70;99.90;;;;;;5090934;28;20040;-70
2023/07/12 05:56:08;;;;;;;12.13;5.32;;;18.80;99.90;;;;;;5091027;28;20036;-69
2023/07/12 05:58:35;;;;;;;16.67;5.93;;;18.80;99.90;;;;;;5073232;28;20047;-68
2023/07/12 06:01:02;;;;;;;10.35;5.15;;;18.90;99.90;;;;;;5124224;28;20048;-68
2023/07/12 06:03:30;;;;;;;20.13;5.93;;;18.90;99.90;;;;;;5090629;28;20036;-68
2023/07/12 06:05:56;;;;;;;16.05;4.90;;;18.80;99.90;;;;;;5089827;28;20040;-69
2023/07/12 06:08:24;;;;;;;25.42;6.50;;;18.70;99.90;;;;;;5073803;28;20040;-69
2023/07/12 06:10:49;;;;;;;19.92;5.93;;;18.70;99.90;;;;;;5074899;28;20038;-69
2023/07/12 06:13:15;;;;;;;15.93;5.50;;;18.60;99.90;;;;;;5077794;28;20103;-69
2023/07/12 06:15:42;;;;;;;16.50;5.75;;;18.50;99.90;;;;;;5090971;28;20392;-69
2023/07/12 06:18:07;;;;;;;15.95;4.47;;;18.60;99.90;;;;;;5091225;28;20089;-69
2023/07/12 06:20:33;;;;;;;18.63;5.60;;;18.50;99.90;;;;;;5091647;28;20443;-69
2023/07/12 06:22:59;;;;;;;16.27;5.68;;;18.50;99.90;;;;;;5115543;28;20039;-69
2023/07/12 06:25:25;;;;;;;14.27;5.03;;;18.50;99.90;;;;;;5096982;28;20046;-69
2023/07/12 06:27:51;;;;;;;18.80;5.88;;;18.50;99.90;;;;;;5114969;28;20036;-69
2023/07/12 06:30:18;;;;;;;20.63;6.57;;;18.50;99.90;;;;;;5108338;28;20456;-73
2023/07/12 06:32:44;;;;;;;13.13;4.45;;;18.30;99.90;;;;;;5111147;28;20449;-67
2023/07/12 06:35:09;;;;;;;12.27;3.40;;;18.00;99.90;;;;;;5094984;28;20093;-67
2023/07/12 06:37:35;;;;;;;10.10;2.90;;;17.60;99.90;;;;;;5113106;28;20089;-68
2023/07/12 06:40:01;;;;;;;7.30;3.25;;;17.40;99.90;;;;;;5080365;28;20086;-69
2023/07/12 06:42:27;;;;;;;11.48;3.90;;;17.20;99.90;;;;;;5091964;28;20044;-69
2023/07/12 06:44:55;;;;;;;12.52;4.50;;;17.20;99.90;;;;;;5092257;28;20056;-69
2023/07/12 06:47:22;;;;;;;17.77;6.00;;;17.10;99.90;;;;;;5120931;27;20056;-69
2023/07/12 06:49:47;;;;;;;13.88;5.88;;;17.10;99.90;;;;;;5088643;28;20048;-69
2023/07/12 06:52:13;;;;;;;12.45;5.22;;;17.20;99.90;;;;;;5073318;28;20036;-70
2023/07/12 06:54:39;;;;;;;13.88;5.95;;;17.20;99.90;;;;;;5092007;28;20089;-69
2023/07/12 06:57:05;;;;;;;18.77;7.30;;;17.30;99.90;;;;;;5090820;28;20040;-69
2023/07/12 06:59:31;;;;;;;23.30;7.32;;;17.40;99.90;;;;;;5087192;28;20043;-69
2023/07/12 07:01:57;;;;;;;15.35;7.00;;;17.60;99.90;;;;;;5089484;28;20051;-69
2023/07/12 07:04:23;;;;;;;22.73;7.93;;;17.60;99.90;;;;;;5091233;28;20481;-69
2023/07/12 07:06:48;;;;;;;18.98;7.45;;;17.70;99.90;;;;;;5090662;28;20047;-69
2023/07/12 07:09:14;;;;;;;14.70;6.90;;;17.70;99.90;;;;;;5089537;28;20044;-68
2023/07/12 07:11:43;;;;;;;16.17;6.35;;;17.70;99.90;;;;;;5094739;28;20036;-68
2023/07/12 07:14:09;;;;;;;25.05;7.68;;;17.70;99.90;;;;;;5104800;28;20170;-68
2023/07/12 07:16:34;;;;;;;19.60;6.78;;;17.70;99.90;;;;;;5092025;28;20096;-68
2023/07/12 07:19:00;;;;;;;19.10;6.13;;;17.80;99.90;;;;;;5090201;28;20050;-69
2023/07/12 07:21:26;;;;;;;14.40;4.60;;;17.80;99.90;;;;;;5090461;28;20040;-68
2023/07/12 07:23:52;;;;;;;10.25;3.70;;;17.90;99.90;;;;;;5089780;28;20471;-69
2023/07/12 07:26:18;;;;;;;8.43;3.17;;;18.00;99.90;;;;;;5087997;28;20046;-68
2023/07/12 07:28:44;;;;;;;10.23;3.30;;;18.00;99.90;;;;;;5088514;28;20058;-68
2023/07/12 07:31:10;;;;;;;7.78;2.65;;;18.00;99.90;;;;;;5094767;28;20420;-69
2023/07/12 07:33:40;;;;;;;6.82;2.90;;;18.00;99.90;;;;;;5089505;28;20061;-69
2023/07/12 07:36:13;;;;;;;7.72;3.05;;;17.90;99.90;;;;;;5090592;28;20040;-69
2023/07/12 07:38:39;;;;;;;9.55;3.20;;;17.80;99.90;;;;;;5089680;28;20048;-69
2023/07/12 07:41:09;;;;;;;11.93;3.33;;;17.70;99.90;;;;;;5092129;28;20039;-68
2023/07/12 07:43:36;;;;;;;8.43;3.40;;;17.70;99.90;;;;;;5104585;28;20043;-68
2023/07/12 07:46:03;;;;;;;6.93;3.10;;;17.60;99.90;;;;;;5111294;28;20112;-69
2023/07/12 07:48:29;;;;;;;11.98;3.90;;;17.70;99.90;;;;;;5098995;28;20058;-69
2023/07/12 07:50:54;;;;;;;10.73;3.63;;;17.80;99.90;;;;;;5091914;28;20048;-69
2023/07/12 07:53:20;;;;;;;12.68;4.35;;;17.90;99.90;;;;;;5089272;28;20384;-69
2023/07/12 07:55:46;;;;;;;9.85;3.53;;;18.10;99.90;;;;;;5090407;28;20540;-69
2023/07/12 07:58:12;;;;;;;7.07;3.25;;;18.30;99.90;;;;;;5090328;28;20048;-69
2023/07/12 08:00:38;;;;;;;10.10;3.88;;;18.50;99.90;;;;;;5072331;28;20393;-69
2023/07/12 08:03:06;;;;;;;11.88;4.28;;;18.70;99.90;;;;;;5071940;28;20062;-69
2023/07/12 08:05:32;;;;;;;8.85;3.08;;;18.90;99.90;;;;;;5088021;28;20143;-69
2023/07/12 08:07:58;;;;;;;8.60;3.55;;;19.00;99.90;;;;;;5100959;28;20071;-69
2023/07/12 08:10:24;;;;;;;18.45;3.65;;;19.10;99.90;;;;;;5092259;28;20040;-68
2023/07/12 08:12:50;;;;;;;6.72;3.10;;;19.20;99.90;;;;;;5092179;28;20047;-68
2023/07/12 08:15:17;;;;;;;13.07;3.75;;;19.10;99.90;;;;;;5108520;28;20050;-68
2023/07/12 08:17:43;;;;;;;9.95;3.20;;;19.10;99.90;;;;;;5095596;28;20044;-68
2023/07/12 08:20:09;;;;;;;10.75;3.28;;;19.00;99.90;;;;;;5103012;28;20109;-69
2023/07/12 08:22:35;;;;;;;9.63;3.60;;;18.90;99.90;;;;;;5089841;28;20778;-68
2023/07/12 08:25:02;;;;;;;6.68;2.72;;;18.80;99.90;;;;;;5087238;28;20044;-68
2023/07/12 08:27:30;;;;;;;6.90;2.58;;;18.70;99.90;;;;;;5091121;28;20370;-68
2023/07/12 08:29:58;;;;;;;6.50;2.72;;;18.70;99.90;;;;;;5088932;28;20527;-69
2023/07/12 08:32:27;;;;;;;7.57;2.67;;;18.70;99.90;;;;;;5089302;28;20373;-69
2023/07/12 08:34:54;;;;;;;9.65;2.95;;;18.80;99.90;;;;;;5089860;28;20048;-69
2023/07/12 08:37:20;;;;;;;11.10;3.08;;;18.90;99.90;;;;;;5101462;28;20032;-69
2023/07/12 08:39:46;;;;;;;7.57;3.33;;;19.20;99.90;;;;;;5090180;28;20360;-69
2023/07/12 08:42:19;;;;;;;7.78;3.17;;;19.50;99.90;;;;;;5089302;28;20044;-69
2023/07/12 08:44:45;;;;;;;10.75;3.83;;;19.70;99.90;;;;;;5076820;28;20060;-67
2023/07/12 08:47:22;;;;;;;8.63;3.25;;;19.90;99.90;;;;;;5089926;28;20493;-66
2023/07/12 08:49:48;;;;;;;7.35;2.80;;;20.10;99.90;;;;;;5088395;28;20040;-69
2023/07/12 08:52:18;;;;;;;8.98;3.00;;;20.00;99.90;;;;;;5071642;28;20035;-67
2023/07/12 08:54:44;;;;;;;10.88;3.28;;;19.90;99.90;;;;;;5090573;28;20036;-66
2023/07/12 08:57:19;;;;;;;7.10;2.92;;;19.60;99.90;;;;;;5092127;28;20040;-66
2023/07/12 08:59:52;;;;;;;6.57;2.38;;;19.30;99.90;;;;;;5090775;28;20481;-66
2023/07/12 09:02:21;;;;;;;6.93;3.35;;;19.30;99.90;;;;;;5107564;28;20410;-67
2023/07/12 09:04:47;;;;;;;9.70;3.30;;;19.30;99.90;;;;;;5083235;28;20483;-66
2023/07/12 09:07:30;;;;;;;8.90;2.88;;;19.50;99.90;;;;;;5105509;28;20062;-66
2023/07/12 09:09:59;;;;;;;7.88;2.63;;;19.70;99.90;;;;;;5083544;28;20040;-66
2023/07/12 09:12:28;;;;;;;7.05;3.10;;;19.70;99.90;;;;;;5094721;28;20047;-66
2023/07/12 09:15:00;;;;;;;7.72;2.42;;;19.50;99.90;;;;;;5080951;28;20043;-66
2023/07/12 09:17:30;;;;;;;7.13;3.10;;;19.30;99.90;;;;;;5091763;28;20072;-65
2023/07/12 09:19:57;;;;;;;7.90;3.45;;;19.30;99.90;;;;;;5077093;28;20051;-66
2023/07/12 09:22:24;;;;;;;6.75;3.00;;;19.50;99.90;;;;;;5090715;28;20051;-66
2023/07/12 09:24:53;;;;;;;7.18;2.95;;;19.50;99.90;;;;;;5090960;28;20046;-66
2023/07/12 09:27:27;;;;;;;6.78;2.75;;;19.50;99.90;;;;;;5090775;28;20043;-65
2023/07/12 09:30:02;;;;;;;11.27;4.05;;;19.50;99.90;;;;;;5091756;28;20040;-65
2023/07/12 09:32:34;;;;;;;5.90;3.20;;;19.40;99.90;;;;;;5092164;28;20077;-65
2023/07/12 09:35:02;;;;;;;9.95;3.50;;;19.30;99.90;;;;;;5095344;28;20046;-66
2023/07/12 09:37:35;;;;;;;9.52;3.33;;;19.40;99.90;;;;;;5110636;28;20091;-65
2023/07/12 09:40:13;;;;;;;7.15;3.40;;;19.70;99.90;;;;;;5075480;28;20044;-65
2023/07/12 09:42:39;;;;;;;7.75;3.15;;;19.90;99.90;;;;;;5090770;28;20044;-65
2023/07/12 09:45:10;;;;;;;8.32;3.17;;;19.90;99.90;;;;;;5090960;28;20056;-66
2023/07/12 09:47:42;;;;;;;8.45;3.15;;;20.00;99.90;;;;;;5090742;28;20047;-66
2023/07/12 09:50:30;;;;;;;9.13;3.03;;;20.10;99.90;;;;;;5099039;28;20481;-65
2023/07/12 09:53:13;;;;;;;9.32;2.92;;;19.90;99.90;;;;;;5086504;28;20031;-64
2023/07/12 09:55:54;;;;;;;9.75;3.30;;;20.00;99.90;;;;;;5099814;28;20036;-63
2023/07/12 09:58:28;;;;;;;6.03;2.50;;;20.30;99.90;;;;;;5112907;28;20038;-64
2023/07/12 10:01:05;;;;;;;5.03;2.20;;;20.50;99.90;;;;;;5102348;28;20044;-64
2023/07/12 10:03:54;;;;;;;5.63;2.47;;;20.70;99.90;;;;;;5096724;28;20047;-64
2023/07/12 10:06:34;;;;;;;4.63;2.20;;;20.80;99.90;;;;;;5096607;28;20036;-64
2023/07/12 10:09:05;;;;;;;6.55;2.67;;;20.90;99.90;;;;;;5112132;28;20047;-64
2023/07/12 10:11:34;;;;;;;6.80;2.63;;;20.90;99.90;;;;;;5129768;27;20127;-63
2023/07/12 10:14:06;;;;;;;4.22;2.00;;;20.80;99.90;;;;;;5115046;28;20035;-64
2023/07/12 10:16:39;;;;;;;7.15;2.10;;;20.50;99.90;;;;;;5112965;28;20040;-64
2023/07/12 10:19:19;;;;;;;4.43;1.85;;;20.30;99.90;;;;;;5096072;28;20093;-65
2023/07/12 10:21:46;;;;;;;4.97;2.33;;;20.00;99.90;;;;;;5094425;28;20079;-64
2023/07/12 10:24:16;;;;;;;6.32;2.13;;;20.00;99.90;;;;;;5095517;28;20052;-64
2023/07/12 10:26:45;;;;;;;5.75;2.28;;;20.10;99.90;;;;;;5094633;28;20047;-64
2023/07/12 10:29:34;;;;;;;8.30;2.08;;;20.10;99.90;;;;;;5096078;28;20048;-64
2023/07/12 10:32:04;;;;;;;5.80;1.65;;;20.00;99.90;;;;;;5093592;28;20488;-64
2023/07/12 10:34:46;;;;;;;5.68;1.70;;;20.10;99.90;;;;;;5095916;28;20420;-64
2023/07/12 10:37:32;;;;;;;6.55;1.83;;;20.40;99.90;;;;;;5094756;28;20119;-64
2023/07/12 10:39:59;;;;;;;6.85;2.30;;;20.60;99.90;;;;;;5113369;28;20391;-64
2023/07/12 10:42:41;;;;;;;8.40;2.40;;;20.50;99.90;;;;;;5115656;28;20443;-64
2023/07/12 10:45:17;;;;;;;7.18;2.47;;;20.50;99.90;;;;;;5114785;28;20497;-64
2023/07/12 10:47:44;;;;;;;8.85;1.98;;;20.60;99.90;;;;;;5073772;28;20132;-64
2023/07/12 10:50:32;;;;;;;4.82;1.77;;;20.60;99.90;;;;;;5073816;28;20045;-64
2023/07/12 10:53:10;;;;;;;5.55;1.80;;;20.70;99.90;;;;;;5106914;28;20489;-65
2023/07/12 10:55:49;;;;;;;5.28;2.05;;;20.90;99.90;;;;;;5073835;28;20502;-64
2023/07/12 10:58:23;;;;;;;5.78;2.00;;;21.10;99.90;;;;;;5056856;28;20044;-64
2023/07/12 11:00:58;;;;;;;6.88;1.70;;;21.40;99.90;;;;;;5056345;28;20119;-64
2023/07/12 11:03:40;;;;;;;;;;;21.60;99.90;;;;;;5116791;27;20047;-64
2023/07/12 11:06:22;;;;;;;5.22;1.77;;;21.60;99.90;;;;;;5093976;28;19916;-63
2023/07/12 11:09:08;;;;;;;4.40;1.80;;;21.50;99.90;;;;;;5093267;28;20622;-64
2023/07/12 11:11:43;;;;;;;6.07;1.73;;;21.40;99.90;;;;;;5093807;28;20144;-64
2023/07/12 11:14:19;;;;;;;3.60;1.42;;;21.40;99.90;;;;;;5105760;28;20506;-63
2023/07/12 11:16:49;;;;;;;6.22;1.60;;;21.50;99.90;;;;;;5099616;28;20051;-64
2023/07/12 11:19:39;;;;;;;4.80;1.90;;;21.70;99.90;;;;;;5093727;28;20489;-64
2023/07/12 11:22:21;;;;;;;6.63;1.40;;;21.80;99.90;;;;;;5092724;28;20050;-64
2023/07/12 11:25:01;;;;;;;4.05;1.40;;;21.80;99.90;;;;;;5094675;28;20036;-63
2023/07/12 11:27:44;;;;;;;4.93;1.20;;;22.00;99.90;;;;;;5092434;28;20127;-64
2023/07/12 11:30:26;;;;;;;4.03;1.60;;;22.00;99.90;;;;;;5094928;28;20036;-64
2023/07/12 11:33:10;;;;;;;4.18;1.35;;;21.90;99.90;;;;;;5093622;28;20054;-64
2023/07/12 11:35:43;;;;;;;5.30;1.70;;;22.00;99.90;;;;;;5075328;28;20039;-64
2023/07/12 11:38:18;;;;;;;3.83;1.27;;;22.00;99.90;;;;;;5076369;28;20044;-64
2023/07/12 11:40:47;;;;;;;6.82;1.60;;;21.70;99.90;;;;;;5099962;28;20027;-64
2023/07/12 11:43:26;;;;;;;3.70;1.27;;;21.40;99.90;;;;;;5114202;28;20043;-64
2023/07/12 11:45:54;;;;;;;5.22;1.38;;;21.20;99.90;;;;;;5114313;28;20500;-64
2023/07/12 11:48:31;;;;;;;4.85;1.40;;;21.00;99.90;;;;;;5113194;28;20075;-63
2023/07/12 11:51:02;;;;;;;6.40;1.67;;;20.80;99.90;;;;;;5113332;28;20426;-64
2023/07/12 11:53:28;;;;;;;4.57;1.67;;;20.70;99.90;;;;;;5085328;28;20044;-63
2023/07/12 11:55:55;;;;;;;4.15;1.40;;;20.80;99.90;;;;;;5093291;28;20388;-63
2023/07/12 11:58:23;;;;;;;5.80;1.67;;;21.10;99.90;;;;;;5084206;28;20040;-64
2023/07/12 12:00:53;;;;;;;6.03;1.50;;;21.20;99.90;;;;;;5090845;28;20408;-64
2023/07/12 12:03:19;;;;;;;5.57;2.28;;;21.20;99.90;;;;;;5086819;28;20058;-64
2023/07/12 12:05:46;;;;;;;5.35;1.70;;;21.30;99.90;;;;;;5091037;28;20040;-64
2023/07/12 12:08:27;;;;;;;5.38;1.30;;;21.50;99.90;;;;;;5089682;28;20501;-64
2023/07/12 12:10:54;;;;;;;4.57;1.25;;;21.50;99.90;;;;;;5090150;28;20036;-64
2023/07/12 12:13:19;;;;;;;4.13;1.33;;;21.40;99.90;;;;;;5088671;28;20135;-65
2023/07/12 12:15:51;;;;;;;4.10;1.25;;;21.50;99.90;;;;;;5090640;28;20143;-64
2023/07/12 12:18:20;;;;;;;5.28;1.35;;;21.60;99.90;;;;;;5087930;28;20032;-64
2023/07/12 12:20:59;;;;;;;5.30;1.38;;;21.80;99.90;;;;;;5090373;28;20040;-64
2023/07/12 12:23:36;;;;;;;5.10;1.50;;;21.90;99.90;;;;;;5089248;28;20526;-64
2023/07/12 12:26:14;;;;;;;5.25;1.38;;;21.80;99.90;;;;;;5071726;28;20035;-64
2023/07/12 12:28:42;;;;;;;4.97;1.20;;;21.80;99.90;;;;;;5091022;28;20040;-65
2023/07/12 12:31:11;;;;;;;4.82;1.27;;;22.00;99.90;;;;;;5089440;28;20032;-64
2023/07/12 12:33:50;;;;;;;5.35;1.30;;;22.10;99.90;;;;;;5089499;28;20752;-64
2023/07/12 12:36:21;;;;;;;3.15;1.00;;;22.10;99.90;;;;;;5089007;28;20523;-64
2023/07/12 12:39:24;;;;;;;4.63;1.30;;;22.00;99.90;;;;;;5088589;28;20048;-64
2023/07/12 12:41:54;;;;;;;4.82;1.20;;;22.00;99.90;;;;;;5065587;28;20051;-64
2023/07/12 12:44:21;;;;;;;3.92;1.20;;;22.10;99.90;;;;;;5089342;28;20060;-64
2023/07/12 12:46:53;;;;;;;5.60;1.88;;;22.20;99.90;;;;;;5087482;28;20481;-65
2023/07/12 12:49:25;;;;;;;5.10;1.50;;;22.10;99.90;;;;;;5087680;28;20043;-64
2023/07/12 12:51:54;;;;;;;5.50;1.80;;;22.20;99.90;;;;;;5087826;28;20043;-64